createdAt,value
2023-03-03T00:00:20.072Z,4.92
2023-03-03T00:03:12.860Z,4.90
2023-03-03T00:05:43.042Z,4.88
2023-03-03T00:08:12.563Z,4.81
2023-03-03T00:10:43.379Z,4.73
2023-03-03T00:13:24.989Z,4.68
2023-03-03T00:16:07.363Z,4.65
2023-03-03T00:18:41.273Z,4.61
2023-03-03T00:21:36.010Z,4.60
2023-03-03T00:24:14.736Z,4.58
2023-03-03T00:26:56.247Z,4.59
2023-03-03T00:29:48.694Z,4.57
2023-03-03T00:32:24.513Z,4.53
2023-03-03T00:35:01.506Z,4.52
2023-03-03T00:37:35.923Z,4.52
2023-03-03T00:40:41.826Z,4.53
2023-03-03T00:43:25.692Z,4.57
2023-03-03T00:45:56.942Z,4.60
2023-03-03T00:48:30.606Z,4.62
2023-03-03T00:51:02.057Z,4.66
2023-03-03T00:53:32.873Z,4.69
2023-03-03T00:56:02.090Z,4.73
2023-03-03T00:58:31.491Z,4.75
2023-03-03T01:01:01.112Z,4.74
2023-03-03T01:03:41.012Z,4.76
2023-03-03T01:06:12.591Z,4.75
2023-03-03T01:08:42.584Z,4.77
2023-03-03T01:11:24.366Z,4.77
2023-03-03T01:13:54.254Z,4.77
2023-03-03T01:16:24.113Z,4.76
2023-03-03T01:18:53.182Z,4.74
2023-03-03T01:21:23.436Z,4.72
2023-03-03T01:23:53.694Z,4.71
2023-03-03T01:26:28.786Z,4.69
2023-03-03T01:28:58.236Z,4.68
2023-03-03T01:31:27.929Z,4.67
2023-03-03T01:33:57.725Z,4.68
2023-03-03T01:36:29.721Z,4.69
2023-03-03T01:38:58.885Z,4.71
2023-03-03T01:41:31.492Z,4.73
2023-03-03T01:44:02.069Z,4.77
2023-03-03T01:47:05.269Z,4.81
2023-03-03T01:49:39.922Z,4.85
2023-03-03T01:52:28.130Z,4.88
2023-03-03T01:55:05.349Z,4.89
2023-03-03T01:57:42.399Z,4.89
2023-03-03T02:00:13.754Z,4.88
2023-03-03T02:02:44.659Z,4.87
2023-03-03T02:05:15.622Z,4.88
2023-03-03T02:07:46.274Z,4.87
2023-03-03T02:10:18.672Z,4.85
2023-03-03T02:12:54.212Z,4.85
2023-03-03T02:15:28.697Z,4.83
2023-03-03T02:18:09.354Z,4.82
2023-03-03T02:21:08.553Z,4.78
2023-03-03T02:24:22.277Z,4.74
2023-03-03T02:26:52.018Z,4.71
2023-03-03T02:29:23.544Z,4.70
2023-03-03T02:31:53.145Z,4.70
2023-03-03T02:34:25.230Z,4.68
2023-03-03T02:36:55.329Z,4.68
2023-03-03T02:39:27.006Z,4.68
2023-03-03T02:42:19.219Z,4.68
2023-03-03T02:44:52.656Z,4.71
2023-03-03T02:47:22.368Z,4.73
2023-03-03T02:49:52.176Z,4.76
2023-03-03T02:52:21.787Z,4.78
2023-03-03T02:54:51.633Z,4.80
2023-03-03T02:57:22.103Z,4.82
2023-03-03T02:59:51.598Z,4.84
2023-03-03T03:02:21.611Z,4.82
2023-03-03T03:04:50.802Z,4.82
2023-03-03T03:07:24.706Z,4.81
2023-03-03T03:09:55.365Z,4.81
2023-03-03T03:12:25.477Z,4.79
2023-03-03T03:14:55.555Z,4.76
2023-03-03T03:17:25.110Z,4.74
2023-03-03T03:19:56.153Z,4.71
2023-03-03T03:22:25.879Z,4.70
2023-03-03T03:24:56.125Z,4.69
2023-03-03T03:27:25.705Z,4.66
2023-03-03T03:29:55.489Z,4.65
2023-03-03T03:32:25.683Z,4.65
2023-03-03T03:34:56.050Z,4.66
2023-03-03T03:37:25.839Z,4.67
2023-03-03T03:39:56.966Z,4.69
2023-03-03T03:42:27.663Z,4.71
2023-03-03T03:44:59.468Z,4.73
2023-03-03T03:47:29.898Z,4.77
2023-03-03T03:50:00.610Z,4.80
2023-03-03T03:52:30.175Z,4.83
2023-03-03T03:54:59.715Z,4.87
2023-03-03T03:57:29.376Z,4.90
2023-03-03T03:59:59.591Z,4.95
2023-03-03T04:02:30.444Z,5.02
2023-03-03T04:05:01.551Z,5.06
2023-03-03T04:07:30.696Z,5.15
2023-03-03T04:09:59.987Z,5.21
2023-03-03T04:12:29.950Z,5.20
2023-03-03T04:15:00.622Z,5.16
2023-03-03T04:17:31.691Z,5.09
2023-03-03T04:20:01.140Z,5.03
2023-03-03T04:22:40.290Z,4.97
2023-03-03T04:25:15.611Z,4.92
2023-03-03T04:27:46.312Z,4.84
2023-03-03T04:30:23.023Z,4.82
2023-03-03T04:32:56.022Z,4.78
2023-03-03T04:35:26.863Z,4.74
2023-03-03T04:37:56.576Z,4.71
2023-03-03T04:40:26.803Z,4.69
2023-03-03T04:49:59.315Z,4.71
2023-03-03T04:52:30.005Z,4.73
2023-03-03T04:55:00.236Z,4.76
2023-03-03T04:57:30.508Z,4.81
2023-03-03T05:00:00.607Z,4.85
2023-03-03T05:02:31.053Z,4.90
2023-03-03T05:05:00.352Z,4.95
2023-03-03T05:07:31.394Z,4.99
2023-03-03T05:10:00.474Z,5.02
2023-03-03T05:12:31.047Z,5.06
2023-03-03T05:15:01.775Z,5.06
2023-03-03T05:17:32.023Z,5.10
2023-03-03T05:20:01.682Z,5.13
2023-03-03T05:22:30.855Z,5.14
2023-03-03T05:25:00.559Z,5.14
2023-03-03T05:27:31.774Z,5.16
2023-03-03T05:30:00.946Z,5.17
2023-03-03T05:32:31.212Z,5.16
2023-03-03T05:35:00.916Z,5.13
2023-03-03T05:37:30.176Z,5.13
2023-03-03T05:39:59.392Z,5.13
2023-03-03T05:42:29.220Z,5.12
2023-03-03T05:44:59.091Z,5.11
2023-03-03T05:47:29.952Z,5.13
2023-03-03T05:49:59.183Z,5.13
2023-03-03T05:52:28.344Z,5.11
2023-03-03T05:54:58.145Z,5.09
2023-03-03T05:57:27.307Z,5.10
2023-03-03T05:59:57.330Z,5.09
2023-03-03T06:02:26.855Z,5.09
2023-03-03T06:04:59.264Z,5.11
2023-03-03T06:07:28.577Z,5.13
2023-03-03T06:09:58.877Z,5.16
2023-03-03T06:12:29.057Z,5.19
2023-03-03T06:14:58.952Z,5.24
2023-03-03T06:17:28.948Z,5.30
2023-03-03T06:19:58.801Z,5.33
2023-03-03T06:22:28.316Z,5.35
2023-03-03T06:24:59.787Z,5.37
2023-03-03T06:27:29.560Z,5.37
2023-03-03T06:29:59.705Z,5.39
2023-03-03T06:32:29.358Z,5.43
2023-03-03T06:34:59.928Z,5.48
2023-03-03T06:37:29.810Z,5.54
2023-03-03T06:39:59.151Z,5.59
2023-03-03T06:42:29.097Z,5.66
2023-03-03T06:45:00.112Z,5.74
2023-03-03T06:47:32.193Z,5.82
2023-03-03T06:50:05.635Z,5.90
2023-03-03T06:52:37.831Z,5.97
2023-03-03T06:55:24.152Z,6.05
2023-03-03T06:57:56.368Z,6.14
2023-03-03T07:00:30.799Z,6.20
2023-03-03T07:03:13.666Z,6.25
2023-03-03T07:05:44.420Z,6.30
2023-03-03T07:08:21.995Z,6.30
2023-03-03T07:10:54.220Z,6.30
2023-03-03T07:13:26.760Z,6.26
2023-03-03T07:16:13.089Z,6.26
2023-03-03T07:18:57.875Z,6.27
2023-03-03T07:21:39.022Z,6.32
2023-03-03T07:24:37.526Z,6.38
2023-03-03T07:27:18.809Z,6.45
2023-03-03T07:29:50.392Z,6.47
2023-03-03T07:32:27.829Z,6.51
2023-03-03T07:34:58.560Z,6.57
2023-03-03T07:37:39.090Z,6.62
2023-03-03T07:40:34.012Z,6.65
2023-03-03T07:43:19.233Z,6.67
2023-03-03T07:45:49.219Z,6.72
2023-03-03T07:48:42.306Z,6.77
2023-03-03T07:51:42.717Z,6.82
2023-03-03T07:54:36.280Z,6.91
2023-03-03T07:57:27.428Z,7.00
2023-03-03T08:00:22.991Z,7.07
2023-03-03T08:03:05.833Z,7.16
2023-03-03T08:05:42.527Z,7.25
2023-03-03T08:08:50.911Z,7.37
2023-03-03T08:11:20.045Z,7.54
2023-03-03T08:13:50.568Z,7.65
2023-03-03T08:16:39.243Z,7.76
2023-03-03T08:19:11.589Z,7.93
2023-03-03T08:21:44.990Z,8.08
2023-03-03T08:24:14.410Z,8.17
2023-03-03T08:26:45.634Z,8.25
2023-03-03T08:29:26.288Z,8.35
2023-03-03T08:31:56.043Z,8.41
2023-03-03T08:34:26.934Z,8.44
2023-03-03T08:36:58.908Z,8.52
2023-03-03T08:39:29.505Z,8.54
2023-03-03T08:41:59.279Z,8.54
2023-03-03T08:44:29.703Z,8.62
2023-03-03T08:47:00.726Z,8.70
2023-03-03T08:49:32.135Z,8.78
2023-03-03T08:52:02.600Z,8.90
2023-03-03T08:54:32.818Z,9.04
2023-03-03T08:57:02.639Z,9.24
2023-03-03T08:59:31.870Z,9.41
2023-03-03T09:02:01.962Z,9.54
2023-03-03T09:04:32.026Z,9.77
2023-03-03T09:07:02.904Z,10.00
2023-03-03T09:09:33.113Z,10.23
2023-03-03T09:12:18.474Z,10.40
2023-03-03T09:14:51.707Z,10.59
2023-03-03T09:17:26.472Z,10.87
2023-03-03T09:20:04.548Z,11.21
2023-03-03T09:22:38.719Z,11.35
2023-03-03T09:25:23.693Z,11.44
2023-03-03T09:27:55.436Z,11.56
2023-03-03T09:30:45.297Z,11.86
2023-03-03T09:33:30.799Z,12.18
2023-03-03T09:36:13.752Z,12.54
2023-03-03T09:38:46.307Z,12.78
2023-03-03T09:41:42.868Z,12.78
2023-03-03T09:44:17.930Z,12.70
2023-03-03T09:47:08.807Z,12.77
2023-03-03T09:50:09.746Z,12.97
2023-03-03T09:52:58.748Z,12.78
2023-03-03T09:55:58.017Z,12.51
2023-03-03T09:58:35.425Z,12.42
2023-03-03T10:01:29.594Z,12.32
2023-03-03T10:04:36.709Z,12.45
2023-03-03T10:07:34.138Z,12.64
2023-03-03T10:10:31.513Z,12.96
2023-03-03T10:13:38.077Z,13.16
2023-03-03T10:16:49.866Z,13.05
2023-03-03T10:19:29.416Z,12.96
2023-03-03T10:22:40.902Z,12.89
2023-03-03T10:25:23.150Z,12.99
2023-03-03T10:28:04.987Z,13.18
2023-03-03T10:31:04.795Z,13.27
2023-03-03T10:33:55.422Z,13.16
2023-03-03T10:36:35.788Z,13.15
2023-03-03T10:39:21.341Z,13.45
2023-03-03T10:42:02.719Z,13.79
2023-03-03T10:45:05.769Z,13.94
2023-03-03T10:47:39.699Z,14.08
2023-03-03T10:50:27.637Z,14.37
2023-03-03T10:53:05.856Z,14.56
2023-03-03T10:55:56.098Z,14.62
2023-03-03T10:58:44.632Z,14.53
2023-03-03T11:01:29.783Z,14.43
2023-03-03T11:04:18.653Z,14.02
2023-03-03T11:07:10.527Z,13.74
2023-03-03T11:10:06.644Z,13.43
2023-03-03T11:12:54.414Z,13.04
2023-03-03T11:15:34.845Z,12.78
2023-03-03T11:18:35.329Z,13.06
2023-03-03T11:21:11.670Z,13.66
2023-03-03T11:23:49.246Z,14.01
2023-03-03T11:27:00.565Z,14.08
2023-03-03T11:29:41.374Z,14.01
2023-03-03T11:32:42.374Z,13.90
2023-03-03T11:35:23.606Z,13.64
2023-03-03T11:38:24.557Z,13.49
2023-03-03T11:41:26.523Z,13.31
2023-03-03T11:44:04.918Z,13.29
2023-03-03T11:46:53.240Z,13.28
2023-03-03T11:49:40.123Z,13.11
2023-03-03T11:52:42.060Z,12.70
2023-03-03T11:55:28.339Z,12.47
2023-03-03T11:58:32.650Z,12.20
2023-03-03T12:01:11.822Z,12.08
2023-03-03T12:03:59.169Z,12.17
2023-03-03T12:06:41.679Z,12.12
2023-03-03T12:09:37.232Z,12.02
2023-03-03T12:12:37.899Z,11.98
2023-03-03T12:15:48.815Z,12.02
2023-03-03T12:18:33.294Z,12.17
2023-03-03T12:21:24.026Z,12.37
2023-03-03T12:24:23.610Z,12.43
2023-03-03T12:27:00.777Z,12.93
2023-03-03T12:29:51.680Z,13.59
2023-03-03T12:32:49.630Z,14.09
2023-03-03T12:35:45.379Z,14.29
2023-03-03T12:38:53.726Z,14.35
2023-03-03T12:42:11.664Z,14.07
2023-03-03T12:45:18.334Z,13.98
2023-03-03T12:47:52.481Z,13.67
2023-03-03T12:50:43.119Z,13.47
2023-03-03T12:53:35.139Z,13.30
2023-03-03T12:56:24.044Z,13.19
2023-03-03T12:59:15.988Z,13.30
2023-03-03T13:02:16.550Z,13.82
2023-03-03T13:05:07.508Z,14.43
2023-03-03T13:07:57.284Z,15.08
2023-03-03T13:10:38.971Z,15.27
2023-03-03T13:13:33.120Z,14.99
2023-03-03T13:16:16.878Z,14.56
2023-03-03T13:19:02.099Z,14.38
2023-03-03T13:21:39.164Z,14.10
2023-03-03T13:24:26.946Z,13.79
2023-03-03T13:27:05.924Z,13.47
2023-03-03T13:29:51.290Z,13.25
2023-03-03T13:32:42.737Z,13.45
2023-03-03T13:35:50.172Z,13.91
2023-03-03T13:38:26.539Z,13.78
2023-03-03T13:41:18.413Z,13.61
2023-03-03T13:44:06.933Z,13.77
2023-03-03T13:46:51.219Z,14.03
2023-03-03T13:49:47.863Z,14.53
2023-03-03T13:52:30.832Z,15.19
2023-03-03T13:55:41.799Z,15.75
2023-03-03T13:58:41.638Z,16.41
2023-03-03T14:01:45.833Z,17.10
2023-03-03T14:04:24.251Z,17.94
2023-03-03T14:07:00.597Z,18.19
2023-03-03T14:09:51.688Z,18.09
2023-03-03T14:12:27.526Z,18.16
2023-03-03T14:15:29.570Z,18.40
2023-03-03T14:18:31.352Z,18.31
2023-03-03T14:21:11.467Z,17.51
2023-03-03T14:24:01.762Z,17.03
2023-03-03T14:26:32.200Z,16.40
2023-03-03T14:29:23.169Z,15.91
2023-03-03T14:31:58.688Z,15.28
2023-03-03T14:34:38.833Z,14.73
2023-03-03T14:37:28.537Z,14.26
2023-03-03T14:40:09.989Z,13.79
2023-03-03T14:43:09.260Z,13.52
2023-03-03T14:45:45.186Z,13.17
2023-03-03T14:48:21.108Z,13.15
2023-03-03T14:50:55.278Z,13.04
2023-03-03T14:53:54.848Z,12.69
2023-03-03T14:56:27.242Z,12.37
2023-03-03T14:59:15.245Z,12.06
2023-03-03T15:01:44.714Z,12.18
2023-03-03T15:04:18.221Z,12.40
2023-03-03T15:06:52.991Z,12.58
2023-03-03T15:09:43.194Z,12.75
2023-03-03T15:12:21.738Z,12.82
2023-03-03T15:14:54.298Z,12.87
2023-03-03T15:17:36.068Z,12.85
2023-03-03T15:20:43.883Z,12.77
2023-03-03T15:23:33.481Z,12.59
2023-03-03T15:26:45.622Z,12.27
2023-03-03T15:29:34.687Z,11.83
2023-03-03T15:32:06.677Z,11.51
2023-03-03T15:34:49.533Z,11.21
2023-03-03T15:37:39.296Z,10.87
2023-03-03T15:40:26.394Z,10.64
2023-03-03T15:43:14.498Z,10.47
2023-03-03T15:46:16.865Z,10.29
2023-03-03T15:49:02.015Z,10.12
2023-03-03T15:52:03.555Z,9.92
2023-03-03T15:55:10.004Z,9.77
2023-03-03T15:57:53.158Z,9.60
2023-03-03T16:00:45.880Z,9.46
2023-03-03T16:03:28.894Z,9.36
2023-03-03T16:06:07.208Z,9.27
2023-03-03T16:09:08.287Z,9.22
2023-03-03T16:11:50.331Z,9.11
2023-03-03T16:14:49.374Z,8.98
2023-03-03T16:17:37.964Z,8.87
2023-03-03T16:20:10.109Z,8.80
2023-03-03T16:22:49.462Z,8.72
2023-03-03T16:25:29.465Z,8.66
2023-03-03T16:28:02.076Z,8.60
2023-03-03T16:30:31.153Z,8.54
2023-03-03T16:33:11.935Z,8.48
2023-03-03T16:36:03.451Z,8.39
2023-03-03T16:38:52.839Z,8.32
2023-03-03T16:42:12.259Z,8.23
2023-03-03T16:44:59.830Z,8.11
2023-03-03T16:47:35.157Z,8.05
2023-03-03T16:50:44.408Z,8.01
2023-03-03T16:53:43.095Z,7.99
2023-03-03T16:56:43.921Z,7.92
2023-03-03T16:59:56.250Z,7.86
2023-03-03T17:02:46.428Z,7.79
2023-03-03T17:05:44.808Z,7.70
2023-03-03T17:08:56.646Z,7.61
2023-03-03T17:12:06.828Z,7.53
2023-03-03T17:14:46.734Z,7.44
2023-03-03T17:17:52.992Z,7.36
2023-03-03T17:21:10.717Z,7.29
2023-03-03T17:24:27.560Z,7.21
2023-03-03T17:27:22.892Z,7.10
2023-03-03T17:29:55.440Z,6.99
2023-03-03T17:32:44.489Z,6.95
2023-03-03T17:36:04.529Z,6.90
2023-03-03T17:38:52.584Z,6.82
2023-03-03T17:41:35.761Z,6.75
2023-03-03T17:44:24.097Z,6.69
2023-03-03T17:47:08.635Z,6.63
2023-03-03T17:49:55.538Z,6.58
2023-03-03T17:53:01.436Z,6.51
2023-03-03T17:55:41.046Z,6.39
2023-03-03T17:58:26.796Z,6.31
2023-03-03T18:01:09.064Z,6.23
2023-03-03T18:04:08.169Z,6.15
2023-03-03T18:07:16.155Z,6.04
2023-03-03T18:10:25.900Z,5.94
2023-03-03T18:13:28.629Z,5.85
2023-03-03T18:16:25.459Z,5.78
2023-03-03T18:19:19.195Z,5.73
2023-03-03T18:21:49.530Z,5.68
2023-03-03T18:25:00.171Z,5.58
2023-03-03T18:27:40.304Z,5.50
2023-03-03T18:30:26.703Z,5.46
2023-03-03T18:33:31.399Z,5.38
2023-03-03T18:36:36.628Z,5.32
2023-03-03T18:39:15.749Z,5.23
2023-03-03T18:42:31.961Z,5.16
2023-03-03T18:45:25.178Z,5.15
2023-03-03T18:48:12.255Z,5.18
2023-03-03T18:50:48.097Z,5.22
2023-03-03T18:53:27.376Z,5.26
2023-03-03T18:56:03.138Z,5.28
2023-03-03T18:58:42.070Z,5.27
2023-03-03T19:01:35.150Z,5.27
2023-03-03T19:04:14.432Z,5.24
2023-03-03T19:06:44.087Z,5.16
2023-03-03T19:09:49.824Z,5.08
2023-03-03T19:12:44.981Z,4.99
2023-03-03T19:15:33.962Z,4.91
2023-03-03T19:18:18.235Z,4.87
2023-03-03T19:21:05.800Z,4.82
2023-03-03T19:24:01.419Z,4.79
2023-03-03T19:26:38.934Z,4.82
2023-03-03T19:29:48.386Z,4.86
2023-03-03T19:32:45.744Z,4.91
2023-03-03T19:35:28.800Z,4.94
2023-03-03T19:38:07.679Z,4.97
2023-03-03T19:41:15.325Z,5.01
2023-03-03T19:43:54.712Z,5.05
2023-03-03T19:46:37.396Z,5.06
2023-03-03T19:49:33.392Z,5.05
2023-03-03T19:52:20.312Z,5.03
2023-03-03T19:55:37.293Z,5.00
2023-03-03T19:58:27.697Z,4.97
2023-03-03T20:01:26.209Z,4.94
2023-03-03T20:04:42.707Z,4.91
2023-03-03T20:07:30.500Z,4.88
2023-03-03T20:10:27.418Z,4.85
2023-03-03T20:13:08.365Z,4.81
2023-03-03T20:15:44.845Z,4.79
2023-03-03T20:18:37.128Z,4.75
2023-03-03T20:21:56.456Z,4.72
2023-03-03T20:25:05.676Z,4.68
2023-03-03T20:28:00.563Z,4.66
2023-03-03T20:30:46.722Z,4.62
2023-03-03T20:33:44.911Z,4.60
2023-03-03T20:36:26.916Z,4.57
2023-03-03T20:39:38.890Z,4.53
2023-03-03T20:42:08.562Z,4.49
2023-03-03T20:45:10.374Z,4.45
2023-03-03T20:48:12.101Z,4.39
2023-03-03T20:51:13.127Z,4.36
2023-03-03T20:54:15.298Z,4.34
2023-03-03T20:57:03.749Z,4.33
2023-03-03T20:59:50.013Z,4.32
2023-03-03T21:02:38.528Z,4.31
2023-03-03T21:05:28.382Z,4.33
2023-03-03T21:08:03.347Z,4.35
2023-03-03T21:10:36.645Z,4.35
2023-03-03T21:13:57.381Z,4.36
2023-03-03T21:16:27.438Z,4.37
2023-03-03T21:19:12.399Z,4.38
2023-03-03T21:21:46.734Z,4.37
2023-03-03T21:24:20.173Z,4.34
2023-03-03T21:27:01.728Z,4.30
2023-03-03T21:29:34.609Z,4.29
2023-03-03T21:32:07.020Z,4.28
2023-03-03T21:34:39.910Z,4.27
2023-03-03T21:37:35.102Z,4.27
2023-03-03T21:40:21.514Z,4.25
2023-03-03T21:42:51.892Z,4.27
2023-03-03T21:45:21.214Z,4.26
2023-03-03T21:47:54.119Z,4.26
2023-03-03T21:50:25.031Z,4.25
2023-03-03T21:52:56.748Z,4.25
2023-03-03T21:55:27.509Z,4.25
2023-03-03T21:57:57.212Z,4.24
2023-03-03T22:00:27.271Z,4.19
2023-03-03T22:02:57.932Z,4.14
2023-03-03T22:05:27.196Z,4.07
2023-03-03T22:07:56.781Z,4.00
2023-03-03T22:10:26.261Z,3.93
2023-03-03T22:12:56.690Z,3.87
2023-03-03T22:15:28.313Z,3.80
2023-03-03T22:17:57.340Z,3.76
2023-03-03T22:20:27.020Z,3.72
2023-03-03T22:22:58.051Z,3.65
2023-03-03T22:25:27.725Z,3.60
2023-03-03T22:27:57.617Z,3.52
2023-03-03T22:30:26.877Z,3.44
2023-03-03T22:32:56.748Z,3.37
2023-03-03T22:35:25.786Z,3.32
2023-03-03T22:37:56.514Z,3.24
2023-03-03T22:40:26.685Z,3.12
2023-03-03T22:42:56.468Z,2.99
2023-03-03T22:45:26.248Z,2.87
2023-03-03T22:47:56.180Z,2.75
2023-03-03T22:50:26.037Z,2.62
2023-03-03T22:52:55.382Z,2.54
2023-03-03T22:55:25.521Z,2.45
2023-03-03T22:57:55.071Z,2.39
2023-03-03T23:00:24.754Z,2.33
2023-03-03T23:02:54.462Z,2.30
2023-03-03T23:05:24.415Z,2.27
2023-03-03T23:07:53.816Z,2.24
2023-03-03T23:10:24.190Z,2.19
2023-03-03T23:12:54.128Z,2.13
2023-03-03T23:15:23.660Z,2.07
2023-03-03T23:17:56.313Z,2.09
2023-03-03T23:20:28.701Z,2.19
2023-03-03T23:23:00.045Z,2.28
2023-03-03T23:25:30.175Z,2.33
2023-03-03T23:28:00.856Z,2.38
2023-03-03T23:30:30.497Z,2.44
2023-03-03T23:33:00.319Z,2.51
2023-03-03T23:35:30.108Z,2.53
2023-03-03T23:37:59.885Z,2.53
2023-03-03T23:40:29.605Z,2.54
2023-03-03T23:42:59.360Z,2.54
2023-03-03T23:45:29.392Z,2.56
2023-03-03T23:47:59.845Z,2.57
2023-03-03T23:50:29.387Z,2.58
2023-03-03T23:52:59.408Z,2.58
2023-03-03T23:55:29.175Z,2.56
2023-03-03T23:57:58.997Z,2.54
